createdAt,value
2019-03-01T00:01:20.870Z,9.00
2019-03-01T00:03:54.998Z,10.28
2019-03-01T00:06:36.184Z,9.28
2019-03-01T00:09:30.734Z,9.75
2019-03-01T00:12:46.634Z,9.25
2019-03-01T00:16:00.382Z,11.12
2019-03-01T00:19:07.314Z,9.40
2019-03-01T00:22:00.682Z,12.70
2019-03-01T00:24:58.354Z,10.28
2019-03-01T00:28:02.162Z,11.97
2019-03-01T00:31:12.250Z,10.38
2019-03-01T00:34:00.919Z,12.07
2019-03-01T00:37:08.814Z,13.58
2019-03-01T00:40:07.670Z,13.98
2019-03-01T00:43:07.322Z,11.40
2019-03-01T00:45:39.168Z,11.68
2019-03-01T00:48:09.948Z,11.97
2019-03-01T00:50:40.738Z,12.18
2019-03-01T00:53:11.639Z,12.20
2019-03-01T00:55:42.475Z,15.17
2019-03-01T00:58:13.290Z,15.78
2019-03-01T01:00:46.748Z,14.55
2019-03-01T01:03:17.544Z,14.97
2019-03-01T01:05:48.752Z,15.93
2019-03-01T01:08:19.861Z,15.83
2019-03-01T01:10:50.671Z,17.45
2019-03-01T01:13:24.182Z,14.87
2019-03-01T01:15:55.010Z,16.82
2019-03-01T01:18:25.813Z,15.38
2019-03-01T01:20:57.790Z,15.35
2019-03-01T01:23:28.680Z,15.53
2019-03-01T01:25:59.585Z,15.45
2019-03-01T01:28:30.647Z,15.75
2019-03-01T01:31:01.672Z,16.60
2019-03-01T01:33:32.411Z,17.45
2019-03-01T01:36:03.174Z,16.73
2019-03-01T01:38:33.956Z,16.70
2019-03-01T01:41:04.839Z,16.55
2019-03-01T01:43:36.167Z,16.85
2019-03-01T01:46:06.928Z,17.80
2019-03-01T01:48:37.702Z,18.02
2019-03-01T01:51:08.407Z,15.88
2019-03-01T01:53:39.484Z,16.65
2019-03-01T01:56:10.375Z,16.60
2019-03-01T01:58:41.430Z,15.35
2019-03-01T02:01:12.217Z,17.87
2019-03-01T02:03:43.251Z,14.35
2019-03-01T02:06:14.614Z,14.73
2019-03-01T02:08:46.165Z,14.38
2019-03-01T02:11:17.143Z,15.15
2019-03-01T02:13:48.407Z,14.63
2019-03-01T02:16:19.203Z,16.48
2019-03-01T02:18:57.428Z,14.87
2019-03-01T02:21:22.694Z,16.80
2019-03-01T02:23:53.432Z,14.15
2019-03-01T02:26:24.510Z,15.63
2019-03-01T02:28:55.246Z,13.45
2019-03-01T02:31:26.747Z,13.18
2019-03-01T02:33:57.507Z,15.47
2019-03-01T02:36:29.645Z,15.72
2019-03-01T02:39:00.491Z,16.05
2019-03-01T02:41:33.053Z,16.62
2019-03-01T02:44:04.199Z,14.83
2019-03-01T02:46:34.947Z,18.15
2019-03-01T02:49:06.763Z,17.10
2019-03-01T02:51:37.898Z,15.95
2019-03-01T02:54:08.663Z,16.47
2019-03-01T02:56:39.494Z,17.10
2019-03-01T02:59:10.265Z,14.98
2019-03-01T03:01:41.087Z,16.62
2019-03-01T03:04:13.313Z,18.50
2019-03-01T03:06:49.377Z,18.10
2019-03-01T03:09:20.100Z,19.75
2019-03-01T03:11:50.874Z,17.70
2019-03-01T03:14:22.442Z,19.48
2019-03-01T03:16:53.244Z,18.12
2019-03-01T03:19:24.012Z,17.50
2019-03-01T03:21:54.799Z,17.80
2019-03-01T03:24:25.939Z,19.87
2019-03-01T03:26:57.647Z,16.35
2019-03-01T03:29:28.405Z,17.90
2019-03-01T03:31:59.233Z,21.20
2019-03-01T03:34:30.143Z,19.73
2019-03-01T03:37:00.941Z,19.62
2019-03-01T03:39:34.223Z,18.50
2019-03-01T03:42:05.388Z,22.82
2019-03-01T03:44:36.230Z,21.00
2019-03-01T03:47:07.346Z,21.20
2019-03-01T03:49:38.659Z,21.52
2019-03-01T03:52:09.388Z,20.70
2019-03-01T03:54:40.151Z,24.18
2019-03-01T03:57:11.948Z,20.77
2019-03-01T03:59:42.651Z,25.05
2019-03-01T04:02:14.072Z,20.95
2019-03-01T04:08:35.519Z,20.80
2019-03-01T04:11:06.321Z,24.20
2019-03-01T04:13:37.098Z,24.10
2019-03-01T04:16:08.155Z,23.07
2019-03-01T04:18:38.989Z,23.15
2019-03-01T04:21:09.723Z,20.70
2019-03-01T04:23:40.478Z,21.93
2019-03-01T04:26:11.285Z,23.67
2019-03-01T04:28:42.051Z,23.32
2019-03-01T04:31:13.253Z,20.50
2019-03-01T04:33:44.005Z,22.85
2019-03-01T04:36:15.286Z,21.60
2019-03-01T04:38:46.378Z,23.45
2019-03-01T04:41:17.139Z,18.98
2019-03-01T04:43:49.063Z,20.68
2019-03-01T04:46:19.924Z,21.33
2019-03-01T04:48:50.685Z,21.57
2019-03-01T04:51:22.406Z,20.72
2019-03-01T04:53:54.093Z,20.92
2019-03-01T04:56:25.121Z,20.75
2019-03-01T04:58:55.871Z,22.35
2019-03-01T05:01:27.092Z,20.10
2019-03-01T05:03:57.836Z,22.17
2019-03-01T05:06:28.603Z,22.07
2019-03-01T05:08:59.369Z,20.60
2019-03-01T05:11:30.725Z,21.60
2019-03-01T05:14:01.572Z,22.60
2019-03-01T05:16:32.636Z,21.73
2019-03-01T05:19:03.401Z,23.20
2019-03-01T05:21:34.234Z,21.75
2019-03-01T05:24:05.413Z,21.17
2019-03-01T05:26:36.490Z,21.82
2019-03-01T05:29:07.544Z,22.55
2019-03-01T05:31:38.289Z,24.87
2019-03-01T05:34:09.313Z,22.22
2019-03-01T05:36:41.072Z,24.52
2019-03-01T05:39:11.822Z,22.42
2019-03-01T05:41:42.560Z,23.90
2019-03-01T05:44:13.345Z,25.60
2019-03-01T05:46:44.102Z,24.77
2019-03-01T05:49:14.853Z,26.85
2019-03-01T05:51:45.587Z,23.70
2019-03-01T05:54:17.665Z,21.57
2019-03-01T05:56:48.883Z,23.60
2019-03-01T05:59:22.120Z,24.90
2019-03-01T06:02:31.637Z,26.23
2019-03-01T06:05:12.138Z,24.60
2019-03-01T06:08:26.303Z,24.90
2019-03-01T06:11:01.754Z,27.07
2019-03-01T06:13:56.698Z,25.62
2019-03-01T06:16:40.507Z,29.20
2019-03-01T06:19:32.483Z,31.37
2019-03-01T06:22:43.338Z,29.15
2019-03-01T06:25:29.507Z,28.85
2019-03-01T06:28:40.486Z,35.13
2019-03-01T06:31:54.552Z,43.10
2019-03-01T06:35:07.020Z,46.48
2019-03-01T06:38:10.921Z,44.60
2019-03-01T06:41:28.549Z,43.13
2019-03-01T06:44:22.766Z,47.73
2019-03-01T06:47:30.667Z,56.65
2019-03-01T06:50:16.774Z,81.35
2019-03-01T06:52:47.814Z,82.05
2019-03-01T06:55:48.815Z,96.37
2019-03-01T06:58:25.205Z,100.90
2019-03-01T07:01:14.245Z,102.53
2019-03-01T07:03:48.431Z,106.20
2019-03-01T07:06:19.651Z,111.90
2019-03-01T07:08:50.655Z,111.35
2019-03-01T07:11:21.551Z,116.42
2019-03-01T07:13:52.684Z,122.65
2019-03-01T07:16:23.903Z,117.28
2019-03-01T07:18:55.079Z,115.88
2019-03-01T07:21:25.885Z,120.40
2019-03-01T07:23:56.687Z,116.17
2019-03-01T07:26:27.567Z,124.82
2019-03-01T07:28:58.300Z,127.70
2019-03-01T07:31:29.140Z,129.50
2019-03-01T07:33:59.939Z,130.93
2019-03-01T07:36:30.901Z,132.40
2019-03-01T07:39:01.666Z,127.55
2019-03-01T07:41:34.043Z,139.07
2019-03-01T07:44:05.046Z,139.95
2019-03-01T07:46:37.067Z,137.95
2019-03-01T07:49:07.869Z,135.48
2019-03-01T07:51:38.652Z,123.90
2019-03-01T07:54:09.443Z,124.70
2019-03-01T07:56:40.846Z,128.72
2019-03-01T07:59:12.343Z,136.10
2019-03-01T08:01:43.120Z,138.43
2019-03-01T08:04:14.646Z,132.83
2019-03-01T08:06:48.464Z,130.10
2019-03-01T08:09:17.986Z,133.80
2019-03-01T08:11:49.438Z,134.87
2019-03-01T08:14:20.308Z,134.03
2019-03-01T08:16:52.621Z,139.70
2019-03-01T08:19:24.526Z,143.10
2019-03-01T08:21:55.430Z,146.87
2019-03-01T08:24:26.460Z,138.25
2019-03-01T08:26:57.682Z,153.00
2019-03-01T08:29:30.698Z,149.45
2019-03-01T08:32:02.986Z,151.90
2019-03-01T08:34:35.199Z,139.20
2019-03-01T08:37:08.172Z,144.85
2019-03-01T08:39:39.813Z,140.50
2019-03-01T08:42:11.683Z,135.90
2019-03-01T08:44:42.485Z,137.22
2019-03-01T08:47:13.364Z,155.52
2019-03-01T08:49:44.427Z,166.03
2019-03-01T08:52:15.260Z,169.93
2019-03-01T08:54:46.110Z,178.72
2019-03-01T08:57:17.071Z,172.43
2019-03-01T08:59:47.889Z,180.18
2019-03-01T09:02:18.836Z,183.40
2019-03-01T09:04:51.236Z,194.22
2019-03-01T09:07:22.803Z,188.80
2019-03-01T09:09:56.863Z,184.20
2019-03-01T09:12:27.045Z,187.20
2019-03-01T09:14:58.487Z,184.90
2019-03-01T09:17:30.664Z,180.15
2019-03-01T09:20:01.583Z,177.27
2019-03-01T09:22:33.855Z,172.70
2019-03-01T09:25:07.400Z,160.18
2019-03-01T09:27:38.257Z,162.37
2019-03-01T09:30:17.850Z,165.20
2019-03-01T09:32:50.062Z,150.40
2019-03-01T09:35:44.061Z,159.32
2019-03-01T09:38:15.111Z,104.58
2019-03-01T09:40:45.943Z,123.67
2019-03-01T09:43:16.975Z,129.87
2019-03-01T09:45:48.861Z,139.12
2019-03-01T09:48:20.708Z,144.30
2019-03-01T09:50:51.572Z,148.78
2019-03-01T09:53:22.563Z,152.12
2019-03-01T09:55:53.622Z,154.47
2019-03-01T09:58:24.518Z,156.45
2019-03-01T10:01:10.992Z,156.12
2019-03-01T10:03:42.008Z,148.30
2019-03-01T10:06:12.931Z,148.40
2019-03-01T10:08:43.816Z,138.92
2019-03-01T10:11:15.080Z,132.82
2019-03-01T10:13:45.932Z,125.33
2019-03-01T10:16:16.828Z,123.72
2019-03-01T10:18:47.681Z,119.22
2019-03-01T10:21:19.343Z,116.47
2019-03-01T10:23:50.358Z,108.83
2019-03-01T10:26:21.332Z,119.35
2019-03-01T10:28:52.286Z,114.60
2019-03-01T10:31:23.270Z,117.53
2019-03-01T10:33:54.236Z,116.42
2019-03-01T10:36:25.118Z,121.37
2019-03-01T10:38:56.137Z,126.60
2019-03-01T10:41:27.060Z,116.75
2019-03-01T10:43:57.989Z,119.80
2019-03-01T10:46:28.892Z,127.15
2019-03-01T10:48:59.802Z,123.37
2019-03-01T10:51:30.683Z,124.10
2019-03-01T10:54:01.589Z,135.57
2019-03-01T10:56:32.482Z,122.37
2019-03-01T10:59:03.476Z,133.57
2019-03-01T11:01:35.608Z,121.67
2019-03-01T11:04:06.540Z,129.27
2019-03-01T11:06:37.478Z,125.07
2019-03-01T11:09:08.846Z,128.00
2019-03-01T11:11:41.271Z,130.30
2019-03-01T11:14:12.446Z,126.85
2019-03-01T11:16:43.622Z,129.93
2019-03-01T11:19:14.583Z,127.35
2019-03-01T11:21:45.854Z,137.95
2019-03-01T11:24:16.820Z,121.10
2019-03-01T11:26:47.630Z,128.38
2019-03-01T11:29:18.439Z,118.53
2019-03-01T11:31:49.301Z,120.80
2019-03-01T11:34:20.303Z,123.50
2019-03-01T11:36:52.541Z,119.67
2019-03-01T11:39:23.624Z,115.70
2019-03-01T11:41:54.495Z,116.15
2019-03-01T11:44:25.300Z,109.90
2019-03-01T11:46:56.093Z,98.50
2019-03-01T11:49:26.984Z,86.25
2019-03-01T11:51:57.955Z,85.60
2019-03-01T11:54:29.118Z,81.57
2019-03-01T11:57:00.572Z,84.47
2019-03-01T11:59:31.618Z,78.02
2019-03-01T12:02:02.523Z,78.10
2019-03-01T12:04:33.300Z,76.35
2019-03-01T12:07:04.563Z,80.87
2019-03-01T12:09:36.412Z,74.47
2019-03-01T12:12:07.255Z,74.90
2019-03-01T12:14:38.232Z,72.45
2019-03-01T12:17:09.152Z,76.87
2019-03-01T12:19:40.415Z,75.20
2019-03-01T12:22:17.089Z,80.83
2019-03-01T12:24:44.058Z,68.13
2019-03-01T12:27:15.278Z,77.33
2019-03-01T12:29:46.211Z,72.05
2019-03-01T12:32:17.124Z,61.42
2019-03-01T12:34:47.946Z,62.38
2019-03-01T12:37:18.848Z,62.90
2019-03-01T12:39:49.804Z,55.25
2019-03-01T12:42:21.133Z,57.05
2019-03-01T12:44:52.644Z,59.85
2019-03-01T12:47:23.843Z,53.33
2019-03-01T12:49:54.813Z,48.63
2019-03-01T12:52:25.656Z,49.98
2019-03-01T12:54:56.527Z,32.93
2019-03-01T12:57:27.450Z,27.42
2019-03-01T13:00:05.209Z,34.70
2019-03-01T13:02:36.347Z,51.00
2019-03-01T13:05:08.116Z,100.58
2019-03-01T13:07:40.150Z,109.60
2019-03-01T13:10:14.188Z,103.92
2019-03-01T13:12:45.114Z,95.65
2019-03-01T13:15:16.058Z,87.35
2019-03-01T13:17:46.985Z,85.57
2019-03-01T13:20:18.017Z,77.60
2019-03-01T13:22:49.081Z,75.60
2019-03-01T13:25:20.143Z,75.00
2019-03-01T13:27:52.581Z,84.50
2019-03-01T13:30:24.863Z,120.05
2019-03-01T13:32:58.889Z,131.93
2019-03-01T13:35:28.538Z,79.90
2019-03-01T13:37:59.679Z,74.22
2019-03-01T13:40:30.628Z,75.37
2019-03-01T13:43:04.573Z,73.80
2019-03-01T13:45:35.594Z,76.57
2019-03-01T13:48:06.728Z,80.97
2019-03-01T13:50:38.304Z,80.12
2019-03-01T13:53:10.417Z,94.60
2019-03-01T13:55:41.398Z,102.20
2019-03-01T13:58:12.319Z,107.90
2019-03-01T14:00:45.586Z,97.93
2019-03-01T14:03:15.874Z,103.07
2019-03-01T14:05:46.762Z,87.88
2019-03-01T14:08:17.698Z,71.05
2019-03-01T14:10:48.636Z,72.50
2019-03-01T14:13:19.913Z,72.85
2019-03-01T14:15:50.822Z,79.55
2019-03-01T14:18:21.738Z,87.20
2019-03-01T14:20:54.419Z,106.85
2019-03-01T14:23:26.389Z,113.95
2019-03-01T14:25:57.614Z,118.35
2019-03-01T14:28:28.794Z,113.65
2019-03-01T14:30:59.650Z,109.72
2019-03-01T14:33:33.196Z,62.62
2019-03-01T14:36:03.839Z,51.00
2019-03-01T14:38:34.819Z,51.68
2019-03-01T14:41:05.686Z,50.25
2019-03-01T14:43:37.166Z,51.97
2019-03-01T14:46:08.047Z,45.52
2019-03-01T14:48:39.102Z,46.42
2019-03-01T14:51:10.883Z,44.05
2019-03-01T14:53:44.630Z,44.75
2019-03-01T14:56:21.433Z,47.83
2019-03-01T14:58:58.888Z,41.02
2019-03-01T15:01:48.747Z,28.80
2019-03-01T15:04:19.582Z,30.15
2019-03-01T15:06:51.407Z,28.57
2019-03-01T15:09:22.953Z,30.97
2019-03-01T15:11:53.902Z,29.23
2019-03-01T15:14:24.930Z,27.55
2019-03-01T15:16:55.821Z,31.30
2019-03-01T15:19:26.743Z,26.10
2019-03-01T15:21:57.875Z,26.75
2019-03-01T15:24:28.788Z,26.97
2019-03-01T15:27:00.113Z,30.32
2019-03-01T15:29:33.254Z,26.60
2019-03-01T15:32:05.791Z,28.73
2019-03-01T15:34:36.931Z,26.80
2019-03-01T15:37:07.687Z,27.80
2019-03-01T15:39:38.797Z,26.53
2019-03-01T15:42:10.078Z,26.87
2019-03-01T15:44:41.134Z,29.60
2019-03-01T15:47:11.901Z,27.87
2019-03-01T15:49:42.811Z,30.55
2019-03-01T15:52:14.732Z,28.60
2019-03-01T15:54:47.380Z,28.42
2019-03-01T15:57:18.866Z,26.90
2019-03-01T15:59:50.839Z,32.60
2019-03-01T16:02:21.817Z,28.98
2019-03-01T16:04:52.644Z,26.68
2019-03-01T16:07:23.422Z,29.98
2019-03-01T16:09:54.279Z,22.95
2019-03-01T16:12:25.065Z,22.75
2019-03-01T16:14:57.418Z,23.85
2019-03-01T16:17:28.694Z,22.75
2019-03-01T16:19:59.574Z,23.70
2019-03-01T16:22:30.803Z,25.62
2019-03-01T16:25:01.990Z,26.53
2019-03-01T16:27:34.596Z,24.82
2019-03-01T16:30:08.440Z,27.02
2019-03-01T16:32:41.111Z,26.02
2019-03-01T16:35:16.211Z,22.90
2019-03-01T16:37:48.111Z,25.02
2019-03-01T16:40:19.331Z,26.68
2019-03-01T16:42:54.374Z,25.57
2019-03-01T16:45:22.931Z,23.55
2019-03-01T16:47:53.974Z,21.90
2019-03-01T16:50:24.882Z,23.92
2019-03-01T16:52:55.764Z,24.15
2019-03-01T16:55:27.957Z,25.08
2019-03-01T16:58:06.835Z,24.98
2019-03-01T17:00:32.174Z,21.47
2019-03-01T17:03:03.163Z,26.65
2019-03-01T17:05:35.769Z,22.77
2019-03-01T17:08:06.998Z,22.15
2019-03-01T17:11:02.507Z,22.52
2019-03-01T17:13:36.746Z,22.33
2019-03-01T17:16:07.605Z,21.70
2019-03-01T17:18:38.377Z,24.77
2019-03-01T17:21:12.415Z,22.87
2019-03-01T17:23:43.700Z,22.82
2019-03-01T17:26:15.503Z,18.90
2019-03-01T17:28:46.369Z,18.70
2019-03-01T17:31:17.317Z,21.40
2019-03-01T17:33:48.841Z,20.77
2019-03-01T17:36:20.898Z,35.55
2019-03-01T17:38:51.761Z,28.42
2019-03-01T17:41:23.500Z,16.40
2019-03-01T17:43:55.302Z,19.77
2019-03-01T17:46:26.067Z,17.27
2019-03-01T17:48:57.324Z,23.38
2019-03-01T17:51:29.122Z,16.67
2019-03-01T17:54:23.153Z,14.53
2019-03-01T17:56:57.211Z,16.73
2019-03-01T17:59:26.770Z,17.20
2019-03-01T18:01:57.758Z,13.55
2019-03-01T18:04:28.599Z,12.68
2019-03-01T18:06:59.751Z,12.65
2019-03-01T18:09:30.542Z,15.98
2019-03-01T18:12:01.438Z,13.83
2019-03-01T18:14:33.780Z,15.78
2019-03-01T18:17:04.999Z,14.65
2019-03-01T18:19:35.883Z,12.20
2019-03-01T18:22:06.717Z,13.30
2019-03-01T18:24:37.557Z,15.48
2019-03-01T18:27:08.446Z,12.82
2019-03-01T18:29:42.406Z,14.05
2019-03-01T18:32:12.291Z,11.05
2019-03-01T18:34:44.060Z,13.85
2019-03-01T18:37:19.566Z,15.30
2019-03-01T18:39:48.361Z,10.97
2019-03-01T18:42:20.383Z,17.40
2019-03-01T18:44:51.418Z,14.35
2019-03-01T18:47:22.279Z,11.90
2019-03-01T18:49:55.299Z,13.45
2019-03-01T18:52:25.950Z,12.68
2019-03-01T18:54:56.831Z,15.75
2019-03-01T18:57:27.653Z,13.18
2019-03-01T18:59:59.897Z,12.07
2019-03-01T19:02:31.242Z,17.23
2019-03-01T19:05:04.588Z,12.23
2019-03-01T19:07:34.660Z,12.95
2019-03-01T19:10:06.716Z,14.43
2019-03-01T19:12:39.585Z,13.37
2019-03-01T19:15:12.169Z,12.45
2019-03-01T19:17:44.598Z,14.83
2019-03-01T19:20:18.244Z,12.43
2019-03-01T19:22:49.132Z,13.45
2019-03-01T19:25:21.739Z,14.63
2019-03-01T19:27:52.592Z,13.13
2019-03-01T19:30:23.563Z,15.80
2019-03-01T19:32:54.521Z,13.98
2019-03-01T19:35:29.751Z,13.75
2019-03-01T19:37:58.331Z,14.38
2019-03-01T19:40:29.166Z,15.85
2019-03-01T19:42:59.989Z,14.17
2019-03-01T19:45:31.012Z,13.13
2019-03-01T19:48:03.436Z,13.97
2019-03-01T19:50:35.457Z,13.93
2019-03-01T19:53:06.494Z,15.65
2019-03-01T19:55:37.264Z,12.88
2019-03-01T19:58:08.789Z,11.97
2019-03-01T20:00:43.310Z,11.93
2019-03-01T20:03:15.153Z,12.45
2019-03-01T20:05:46.114Z,10.63
2019-03-01T20:08:19.853Z,11.93
2019-03-01T20:10:51.715Z,9.95
2019-03-01T20:13:23.048Z,10.55
2019-03-01T20:15:53.968Z,11.97
2019-03-01T20:18:25.029Z,9.95
2019-03-01T20:20:57.625Z,11.53
2019-03-01T20:23:29.471Z,9.78
2019-03-01T20:26:00.960Z,9.65
2019-03-01T20:28:31.838Z,11.48
2019-03-01T20:31:04.980Z,9.57
2019-03-01T20:33:35.330Z,9.15
2019-03-01T20:36:06.197Z,10.13
2019-03-01T20:38:39.868Z,9.75
2019-03-01T20:41:09.635Z,9.20
2019-03-01T20:43:41.758Z,9.45
2019-03-01T20:46:13.529Z,8.90
2019-03-01T20:48:44.369Z,8.95
2019-03-01T20:51:15.192Z,8.83
2019-03-01T20:53:49.533Z,7.53
2019-03-01T20:56:19.502Z,6.85
2019-03-01T20:58:50.281Z,6.60
2019-03-01T21:01:21.056Z,7.42
2019-03-01T21:03:51.894Z,7.15
2019-03-01T21:06:22.668Z,6.95
2019-03-01T21:08:53.688Z,7.97
2019-03-01T21:11:25.358Z,9.57
2019-03-01T21:13:57.116Z,8.50
2019-03-01T21:16:29.855Z,8.00
2019-03-01T21:19:00.786Z,11.50
2019-03-01T21:21:31.542Z,8.18
2019-03-01T21:24:02.306Z,12.60
2019-03-01T21:26:33.092Z,8.25
2019-03-01T21:29:03.992Z,9.25
2019-03-01T21:31:35.414Z,15.53
2019-03-01T21:34:07.581Z,23.00
2019-03-01T21:36:38.496Z,22.52
2019-03-01T21:39:10.375Z,23.98
2019-03-01T21:41:44.848Z,28.05
2019-03-01T21:44:14.561Z,22.50
2019-03-01T21:46:45.656Z,21.33
2019-03-01T21:49:16.710Z,18.27
2019-03-01T21:51:47.653Z,17.17
2019-03-01T21:54:18.521Z,16.10
2019-03-01T21:56:56.025Z,12.23
2019-03-01T21:59:22.043Z,12.20
2019-03-01T22:01:53.080Z,11.57
2019-03-01T22:04:24.463Z,10.18
2019-03-01T22:06:56.044Z,10.25
2019-03-01T22:09:27.872Z,10.00
2019-03-01T22:11:58.709Z,10.53
2019-03-01T22:14:30.537Z,10.10
2019-03-01T22:17:01.358Z,10.63
2019-03-01T22:19:33.653Z,11.50
2019-03-01T22:22:07.416Z,10.00
2019-03-01T22:24:38.403Z,10.40
2019-03-01T22:27:09.247Z,11.08
2019-03-01T22:29:40.067Z,10.95
2019-03-01T22:32:11.363Z,11.28
2019-03-01T22:34:42.422Z,10.25
2019-03-01T22:37:13.279Z,10.75
2019-03-01T22:39:44.210Z,11.63
2019-03-01T22:42:15.363Z,13.40
2019-03-01T22:44:46.226Z,12.35
2019-03-01T22:47:17.002Z,12.37
2019-03-01T22:49:47.958Z,14.70
2019-03-01T22:52:18.774Z,14.45
2019-03-01T22:54:49.593Z,16.32
2019-03-01T22:57:22.699Z,17.27
2019-03-01T22:59:52.850Z,18.50
2019-03-01T23:02:24.913Z,19.23
2019-03-01T23:04:56.773Z,19.05
2019-03-01T23:07:27.633Z,19.07
2019-03-01T23:09:58.457Z,20.08
2019-03-01T23:12:30.907Z,20.65
2019-03-01T23:15:02.800Z,19.73
2019-03-01T23:17:35.192Z,20.85
2019-03-01T23:20:07.438Z,21.37
2019-03-01T23:22:38.292Z,21.50
2019-03-01T23:25:10.837Z,21.90
2019-03-01T23:27:41.755Z,21.17
2019-03-01T23:30:13.738Z,21.68
2019-03-01T23:32:45.014Z,20.97
2019-03-01T23:35:18.098Z,22.50
2019-03-01T23:37:48.548Z,21.55
2019-03-01T23:40:19.366Z,20.50
2019-03-01T23:42:53.370Z,20.32
2019-03-01T23:45:23.398Z,21.25
2019-03-01T23:47:54.193Z,20.48
2019-03-01T23:50:26.011Z,19.67
2019-03-01T23:52:58.921Z,20.70
2019-03-01T23:55:29.275Z,18.92
2019-03-01T23:58:06.095Z,18.62
